Time;durP1;ratioP1;P1;durP2;ratioP2;P2;SDS_P1;SDS_P2;PMS_P1;PMS_P2;Temp;Humidity;BMP_temperature;BMP_pressure;BME280_temperature;BME280_humidity;BME280_pressure;Samples;Min_cycle;Max_cycle;Signal;HPM_P1;HPM_P2
2021/03/24 00:00:26;;;;;;;58.85;25.65;;;6.60;99.90;;;;;;5079683;28;20029;-73
2021/03/24 00:02:58;;;;;;;59.53;25.38;;;6.60;99.90;;;;;;5077061;28;20100;-74
2021/03/24 00:05:30;;;;;;;63.03;26.52;;;6.50;99.90;;;;;;5053529;28;20382;-74
2021/03/24 00:07:56;;;;;;;56.75;25.65;;;6.50;99.90;;;;;;5075302;28;20039;-73
2021/03/24 00:10:24;;;;;;;63.53;27.10;;;6.60;99.90;;;;;;5070928;28;20029;-73
2021/03/24 00:12:51;;;;;;;65.65;28.73;;;6.50;99.90;;;;;;5057200;28;20028;-73
2021/03/24 00:15:17;;;;;;;73.00;31.20;;;6.50;99.90;;;;;;5037829;28;20409;-73
2021/03/24 00:17:43;;;;;;;78.22;32.88;;;6.50;99.90;;;;;;5074035;28;20036;-73
2021/03/24 00:20:11;;;;;;;81.38;34.33;;;6.50;99.90;;;;;;5073612;28;20028;-73
2021/03/24 00:22:37;;;;;;;60.08;25.98;;;6.50;99.90;;;;;;5063755;28;20040;-73
2021/03/24 00:25:04;;;;;;;86.18;36.53;;;6.50;99.90;;;;;;5051102;28;20067;-73
2021/03/24 00:27:30;;;;;;;79.78;35.15;;;6.50;99.90;;;;;;5043467;28;20107;-74
2021/03/24 00:29:55;;;;;;;85.03;33.88;;;6.40;99.90;;;;;;5054840;28;20170;-74
2021/03/24 00:32:21;;;;;;;77.95;33.70;;;6.50;99.90;;;;;;5065840;28;20102;-73
2021/03/24 00:34:46;;;;;;;80.05;34.38;;;6.40;99.90;;;;;;5055269;28;20047;-73
2021/03/24 00:37:12;;;;;;;76.65;32.83;;;6.50;99.90;;;;;;5071876;28;20020;-73
2021/03/24 00:39:38;;;;;;;78.43;34.05;;;6.40;99.90;;;;;;5050585;28;20037;-73
2021/03/24 00:42:04;;;;;;;77.45;31.17;;;6.40;99.90;;;;;;5044411;28;20083;-73
2021/03/24 00:44:30;;;;;;;69.50;30.83;;;6.30;99.90;;;;;;5071858;28;20107;-73
2021/03/24 00:46:57;;;;;;;69.45;29.83;;;6.30;99.90;;;;;;5071624;28;20108;-73
2021/03/24 00:49:27;;;;;;;66.68;29.55;;;6.40;99.90;;;;;;5060184;28;20079;-73
2021/03/24 00:51:52;;;;;;;72.55;31.60;;;6.40;99.90;;;;;;5068817;28;20062;-76
2021/03/24 00:54:18;;;;;;;68.65;31.38;;;6.30;99.90;;;;;;5069208;28;20428;-75
2021/03/24 00:56:45;;;;;;;68.80;28.75;;;6.30;99.90;;;;;;5075479;28;20037;-76
2021/03/24 00:59:10;;;;;;;64.50;29.70;;;6.30;99.90;;;;;;5075996;28;20043;-77
2021/03/24 01:01:36;;;;;;;77.03;30.73;;;6.30;99.90;;;;;;5075576;28;20111;-75
2021/03/24 01:04:02;;;;;;;68.47;29.70;;;6.30;99.90;;;;;;5076594;28;20020;-76
2021/03/24 01:06:46;;;;;;;71.53;31.75;;;6.30;99.90;;;;;;5074530;28;20021;-75
2021/03/24 01:09:13;;;;;;;66.32;29.92;;;6.20;99.90;;;;;;5070373;28;20033;-75
2021/03/24 01:11:40;;;;;;;69.82;29.35;;;6.20;99.90;;;;;;5075344;28;20059;-75
2021/03/24 01:14:07;;;;;;;76.88;31.45;;;6.20;99.90;;;;;;5057160;28;20037;-77
2021/03/24 01:16:33;;;;;;;71.97;30.47;;;6.20;99.90;;;;;;5058087;28;20028;-76
2021/03/24 01:18:59;;;;;;;70.15;31.30;;;6.20;99.90;;;;;;5057573;28;20036;-75
2021/03/24 01:21:25;;;;;;;65.30;29.17;;;6.20;99.90;;;;;;5075504;28;20028;-75
2021/03/24 01:23:51;;;;;;;79.57;32.90;;;6.20;99.90;;;;;;5075558;28;20028;-75
2021/03/24 01:26:17;;;;;;;68.30;30.05;;;6.20;99.90;;;;;;5075833;28;20416;-76
2021/03/24 01:28:43;;;;;;;67.50;29.80;;;6.20;99.90;;;;;;5075357;28;20120;-77
2021/03/24 01:31:09;;;;;;;72.10;31.10;;;6.20;99.90;;;;;;5075738;28;20425;-75
2021/03/24 01:33:34;;;;;;;81.15;31.58;;;6.10;99.90;;;;;;5075674;28;20439;-75
2021/03/24 01:36:00;;;;;;;70.80;31.30;;;6.10;99.90;;;;;;5075521;28;20523;-78
2021/03/24 01:38:26;;;;;;;83.05;31.88;;;6.10;99.90;;;;;;5075211;28;20064;-76
2021/03/24 01:40:59;;;;;;;75.32;31.70;;;6.10;99.90;;;;;;5075657;28;20460;-75
2021/03/24 01:43:31;;;;;;;73.78;29.45;;;6.00;99.90;;;;;;5056429;28;20036;-76
2021/03/24 01:46:19;;;;;;;70.45;29.52;;;6.00;99.90;;;;;;5075016;28;20028;-75
2021/03/24 01:49:07;;;;;;;78.68;30.63;;;6.00;99.90;;;;;;5075094;28;20036;-75
2021/03/24 01:51:51;;;;;;;69.95;30.15;;;5.90;99.90;;;;;;5062926;28;20385;-76
2021/03/24 01:54:23;;;;;;;70.18;31.42;;;5.90;99.90;;;;;;5056019;28;20473;-76
2021/03/24 01:56:53;;;;;;;67.68;28.83;;;5.90;99.90;;;;;;5057276;28;20492;-76
2021/03/24 01:59:18;;;;;;;72.55;28.50;;;5.90;99.90;;;;;;5075814;28;20105;-75
2021/03/24 02:01:44;;;;;;;67.10;29.92;;;5.80;99.90;;;;;;5076676;28;20052;-75
2021/03/24 02:04:10;;;;;;;70.93;31.65;;;5.80;99.90;;;;;;5058309;28;20032;-76
2021/03/24 02:06:44;;;;;;;64.93;30.75;;;5.80;99.90;;;;;;5075427;28;20491;-77
2021/03/24 02:09:32;;;;;;;77.70;31.92;;;5.70;99.90;;;;;;5077634;28;20150;-76
2021/03/24 02:12:24;;;;;;;74.63;30.50;;;5.70;99.90;;;;;;5056152;28;20049;-75
2021/03/24 02:15:13;;;;;;;79.47;31.35;;;5.70;99.90;;;;;;5046723;28;20564;-77
2021/03/24 02:17:42;;;;;;;78.72;32.00;;;5.60;99.90;;;;;;5077138;28;20040;-77
2021/03/24 02:20:15;;;;;;;82.03;32.05;;;5.70;99.90;;;;;;5075895;28;20423;-78
2021/03/24 02:22:55;;;;;;;78.82;32.33;;;5.70;99.90;;;;;;5074238;28;20043;-76
2021/03/24 02:25:34;;;;;;;79.30;32.22;;;5.70;99.90;;;;;;5057191;28;20021;-76
2021/03/24 02:28:05;;;;;;;70.75;31.02;;;5.70;99.90;;;;;;5056651;28;20373;-75
2021/03/24 02:30:34;;;;;;;85.63;32.72;;;5.70;99.90;;;;;;5074876;28;20419;-77
2021/03/24 02:33:23;;;;;;;81.63;34.47;;;5.70;99.90;;;;;;5074839;28;20469;-74
2021/03/24 02:35:53;;;;;;;77.53;33.22;;;5.70;99.90;;;;;;5074202;28;20036;-76
2021/03/24 02:38:22;;;;;;;86.28;34.22;;;5.70;99.90;;;;;;5074063;28;20025;-75
2021/03/24 02:40:51;;;;;;;79.28;33.00;;;5.70;99.90;;;;;;5074340;28;20025;-76
2021/03/24 02:43:18;;;;;;;76.75;33.20;;;5.70;99.90;;;;;;5072010;28;20045;-73
2021/03/24 02:45:46;;;;;;;83.35;32.30;;;5.70;99.90;;;;;;5074414;28;20064;-76
2021/03/24 02:48:21;;;;;;;79.00;33.05;;;5.70;99.90;;;;;;5074126;28;20024;-77
2021/03/24 02:50:47;;;;;;;72.65;31.73;;;5.70;99.90;;;;;;5073967;28;20052;-75
2021/03/24 02:53:14;;;;;;;82.70;32.55;;;5.70;99.90;;;;;;5073987;28;20033;-75
2021/03/24 02:55:42;;;;;;;77.97;32.97;;;5.70;99.90;;;;;;5056287;28;20088;-77
2021/03/24 02:58:11;;;;;;;78.22;33.25;;;5.70;99.90;;;;;;5073994;28;20055;-75
2021/03/24 03:00:38;;;;;;;79.20;32.80;;;5.60;99.90;;;;;;5073450;28;20047;-77
2021/03/24 03:03:31;;;;;;;70.93;30.88;;;5.60;99.90;;;;;;5051328;28;20496;-75
2021/03/24 03:05:58;;;;;;;71.60;31.80;;;5.60;99.90;;;;;;5064739;28;20033;-75
2021/03/24 03:08:39;;;;;;;76.73;34.43;;;5.60;99.90;;;;;;5073713;28;20381;-76
2021/03/24 03:11:16;;;;;;;69.80;31.40;;;5.50;99.90;;;;;;5068641;28;20344;-76
2021/03/24 03:13:52;;;;;;;77.45;30.52;;;5.50;99.90;;;;;;5055461;28;20465;-76
2021/03/24 03:16:27;;;;;;;87.10;34.97;;;5.50;99.90;;;;;;5052355;28;20028;-74
2021/03/24 03:19:05;;;;;;;77.22;34.65;;;5.50;99.90;;;;;;5068381;28;20078;-75
2021/03/24 03:21:37;;;;;;;76.15;33.67;;;5.50;99.90;;;;;;5067625;28;20029;-75
2021/03/24 03:24:05;;;;;;;79.28;34.63;;;5.50;99.90;;;;;;5072520;28;20110;-75
2021/03/24 03:26:33;;;;;;;80.07;32.78;;;5.50;99.90;;;;;;5073415;28;20476;-73
2021/03/24 03:29:06;;;;;;;82.70;35.22;;;5.40;99.90;;;;;;5073498;28;20111;-75
2021/03/24 03:31:37;;;;;;;80.75;34.15;;;5.40;99.90;;;;;;5055013;28;20025;-75
2021/03/24 03:34:05;;;;;;;87.43;34.63;;;5.40;99.90;;;;;;5073080;28;20016;-75
2021/03/24 03:36:32;;;;;;;86.22;33.50;;;5.50;99.90;;;;;;5055111;28;20052;-74
2021/03/24 03:39:00;;;;;;;79.30;35.17;;;5.50;99.90;;;;;;5053118;28;20496;-75
2021/03/24 03:41:29;;;;;;;83.20;34.65;;;5.50;99.90;;;;;;5063348;28;20476;-75
2021/03/24 03:43:55;;;;;;;85.95;34.85;;;5.40;99.90;;;;;;5069810;28;20024;-74
2021/03/24 03:46:26;;;;;;;80.45;33.22;;;5.40;99.90;;;;;;5072353;28;20029;-75
2021/03/24 03:48:52;;;;;;;80.47;33.78;;;5.40;99.90;;;;;;5054402;28;20020;-75
2021/03/24 03:51:32;;;;;;;83.70;34.45;;;5.40;99.90;;;;;;5072739;28;20385;-75
2021/03/24 03:54:26;;;;;;;82.68;33.80;;;5.40;99.90;;;;;;5054541;28;20044;-75
2021/03/24 03:57:14;;;;;;;76.65;32.05;;;5.40;99.90;;;;;;5064137;28;20131;-75
2021/03/24 03:59:51;;;;;;;78.88;34.28;;;5.30;99.90;;;;;;5071759;28;20037;-73
2021/03/24 04:02:20;;;;;;;80.68;33.72;;;5.30;99.90;;;;;;5060662;28;20477;-75
2021/03/24 04:04:53;;;;;;;84.80;33.60;;;5.40;99.90;;;;;;5055451;28;20516;-74
2021/03/24 04:08:03;;;;;;;80.22;33.95;;;5.40;99.90;;;;;;5071135;28;20028;-74
2021/03/24 04:10:32;;;;;;;78.97;33.03;;;5.40;99.90;;;;;;5066775;28;20130;-74
2021/03/24 04:13:01;;;;;;;82.65;31.67;;;5.40;99.90;;;;;;5037074;28;20053;-75
2021/03/24 04:15:29;;;;;;;79.18;31.38;;;5.40;99.90;;;;;;5037865;28;20063;-75
2021/03/24 04:18:03;;;;;;;84.15;34.03;;;5.40;99.90;;;;;;5055181;28;20114;-74
2021/03/24 04:20:31;;;;;;;82.13;32.95;;;5.40;99.90;;;;;;5046711;28;20068;-75
2021/03/24 04:23:00;;;;;;;84.60;35.75;;;5.40;99.90;;;;;;5063089;28;20092;-75
2021/03/24 04:25:34;;;;;;;85.88;33.25;;;5.50;99.90;;;;;;5054698;28;20048;-75
2021/03/24 04:28:02;;;;;;;78.30;33.42;;;5.40;99.90;;;;;;5073195;28;20105;-75
2021/03/24 04:30:37;;;;;;;83.68;33.35;;;5.50;99.90;;;;;;5073470;28;20048;-75
2021/03/24 04:33:03;;;;;;;87.90;33.95;;;5.40;99.90;;;;;;5077235;28;20028;-75
2021/03/24 04:35:29;;;;;;;78.78;31.55;;;5.50;99.90;;;;;;5075908;28;20374;-75
2021/03/24 04:37:59;;;;;;;80.65;34.75;;;5.50;99.90;;;;;;5077033;28;20488;-74
2021/03/24 04:40:49;;;;;;;94.05;34.75;;;5.50;99.90;;;;;;5068274;28;20044;-75
2021/03/24 04:43:20;;;;;;;84.57;34.75;;;5.50;99.90;;;;;;5056822;28;20032;-75
2021/03/24 04:46:05;;;;;;;79.25;32.42;;;5.50;99.90;;;;;;5073587;28;20029;-75
2021/03/24 04:48:47;;;;;;;77.50;34.80;;;5.50;99.90;;;;;;5058451;28;20082;-74
2021/03/24 04:51:28;;;;;;;81.57;34.15;;;5.50;99.90;;;;;;5054868;28;20380;-75
2021/03/24 04:54:18;;;;;;;85.93;32.38;;;5.50;99.90;;;;;;5076587;28;20146;-75
2021/03/24 04:56:49;;;;;;;88.18;34.05;;;5.50;99.90;;;;;;5057926;28;20392;-74
2021/03/24 04:59:22;;;;;;;77.70;32.47;;;5.50;99.90;;;;;;5074863;28;20040;-75
2021/03/24 05:02:02;;;;;;;84.47;32.80;;;5.40;99.90;;;;;;5076335;28;20066;-75
2021/03/24 05:04:48;;;;;;;81.65;32.70;;;5.40;99.90;;;;;;5075807;28;20492;-75
2021/03/24 05:07:40;;;;;;;86.43;33.85;;;5.50;99.90;;;;;;5073344;28;20078;-75
2021/03/24 05:10:09;;;;;;;78.70;32.13;;;5.50;99.90;;;;;;5067409;28;20024;-75
2021/03/24 05:12:53;;;;;;;79.25;32.58;;;5.50;99.90;;;;;;5067267;28;20063;-75
2021/03/24 05:15:24;;;;;;;79.18;31.52;;;5.50;99.90;;;;;;5058342;28;20037;-75
2021/03/24 05:17:51;;;;;;;78.80;32.70;;;5.50;99.90;;;;;;5075722;28;20115;-74
2021/03/24 05:20:26;;;;;;;84.32;32.03;;;5.50;99.90;;;;;;5058102;28;20107;-75
2021/03/24 05:22:52;;;;;;;80.13;33.90;;;5.50;99.90;;;;;;5075445;28;20507;-74
2021/03/24 05:25:20;;;;;;;76.93;31.92;;;5.50;99.90;;;;;;5056088;28;20068;-74
2021/03/24 05:27:51;;;;;;;77.53;31.55;;;5.50;99.90;;;;;;5062966;28;20078;-75
2021/03/24 05:30:28;;;;;;;76.50;31.33;;;5.50;99.90;;;;;;5076177;28;20028;-75
2021/03/24 05:33:04;;;;;;;72.85;31.33;;;5.50;99.90;;;;;;5075656;28;20032;-75
2021/03/24 05:35:43;;;;;;;76.10;30.50;;;5.60;99.90;;;;;;5063803;28;20029;-74
2021/03/24 05:38:19;;;;;;;80.75;29.30;;;5.60;99.90;;;;;;5056049;28;20064;-74
2021/03/24 05:41:12;;;;;;;82.32;31.63;;;5.50;99.90;;;;;;5068770;28;20016;-74
2021/03/24 05:44:05;;;;;;;74.90;30.60;;;5.50;99.90;;;;;;5042586;28;20478;-74
2021/03/24 05:46:49;;;;;;;75.93;31.98;;;5.50;99.90;;;;;;5055802;28;20496;-75
2021/03/24 05:49:29;;;;;;;76.53;30.45;;;5.60;99.90;;;;;;5071805;28;20039;-75
2021/03/24 05:52:10;;;;;;;83.68;31.48;;;5.60;99.90;;;;;;5056519;28;20098;-75
2021/03/24 05:55:07;;;;;;;69.95;30.05;;;5.60;99.90;;;;;;5069968;28;20083;-74
2021/03/24 05:58:00;;;;;;;72.25;31.35;;;5.60;99.90;;;;;;5045801;28;20032;-75
2021/03/24 06:00:34;;;;;;;81.82;32.50;;;5.60;99.90;;;;;;5074674;28;20044;-73
2021/03/24 06:03:16;;;;;;;80.03;32.13;;;5.70;99.90;;;;;;5068654;28;20025;-74
2021/03/24 06:05:49;;;;;;;77.32;30.25;;;5.70;99.90;;;;;;5043464;28;20036;-74
2021/03/24 06:08:52;;;;;;;75.65;30.77;;;5.70;99.90;;;;;;5074736;28;20033;-74
2021/03/24 06:12:02;;;;;;;72.55;29.80;;;5.70;99.90;;;;;;5068007;28;20043;-75
2021/03/24 06:15:05;;;;;;;73.13;30.50;;;5.90;99.90;;;;;;4986409;28;20035;-73
2021/03/24 06:17:48;;;;;;;70.60;29.55;;;5.90;99.90;;;;;;5053145;28;20384;-74
2021/03/24 06:20:28;;;;;;;76.20;30.83;;;5.90;99.90;;;;;;5073741;28;20036;-74
2021/03/24 06:23:33;;;;;;;73.55;32.05;;;6.00;99.90;;;;;;5053881;28;20032;-74
2021/03/24 06:26:30;;;;;;;72.10;31.15;;;6.10;99.90;;;;;;5074287;28;20055;-74
2021/03/24 06:29:09;;;;;;;75.82;30.77;;;6.20;99.90;;;;;;5073720;28;20443;-73
2021/03/24 06:31:43;;;;;;;76.20;30.63;;;6.30;99.90;;;;;;5062816;28;20029;-73
2021/03/24 06:34:41;;;;;;;83.38;32.58;;;6.40;99.90;;;;;;5073170;28;20419;-73
2021/03/24 06:37:33;;;;;;;73.68;29.00;;;6.40;99.90;;;;;;5073098;28;20040;-74
2021/03/24 06:40:21;;;;;;;75.30;30.85;;;6.50;99.90;;;;;;5068349;28;20052;-73
2021/03/24 06:42:53;;;;;;;76.40;30.77;;;6.60;99.90;;;;;;5067804;28;20082;-75
2021/03/24 06:45:57;;;;;;;77.68;30.80;;;6.70;99.90;;;;;;5053488;28;20032;-74
2021/03/24 06:49:00;;;;;;;75.70;29.52;;;6.80;99.90;;;;;;5054651;28;20473;-74
2021/03/24 06:52:06;;;;;;;77.22;29.80;;;6.80;99.90;;;;;;5073399;28;20480;-74
2021/03/24 06:55:01;;;;;;;71.80;29.90;;;6.90;99.90;;;;;;5054676;28;20055;-74
2021/03/24 06:57:48;;;;;;;74.93;31.08;;;7.00;99.90;;;;;;5056660;28;20033;-75
2021/03/24 07:00:33;;;;;;;54.80;22.92;;;7.10;99.90;;;;;;5055961;28;20048;-76
2021/03/24 07:03:16;;;;;;;71.22;31.00;;;7.20;99.90;;;;;;5074045;28;20035;-74
2021/03/24 07:06:00;;;;;;;75.95;30.45;;;7.20;99.90;;;;;;5074446;28;20385;-74
2021/03/24 07:08:30;;;;;;;74.70;30.95;;;7.30;99.90;;;;;;5036525;28;20079;-74
2021/03/24 07:11:12;;;;;;;67.30;28.92;;;7.40;99.90;;;;;;5054293;28;20028;-74
2021/03/24 07:13:50;;;;;;;75.00;29.52;;;7.50;99.90;;;;;;5055775;28;20499;-74
2021/03/24 07:16:51;;;;;;;68.57;30.08;;;7.60;99.90;;;;;;5073510;28;20028;-74
2021/03/24 07:19:52;;;;;;;85.00;31.42;;;7.60;99.90;;;;;;5035871;28;20078;-74
2021/03/24 07:22:21;;;;;;;68.65;30.33;;;7.70;99.90;;;;;;5074027;28;20078;-74
2021/03/24 07:24:52;;;;;;;73.45;30.75;;;7.80;99.90;;;;;;5073972;28;20024;-73
2021/03/24 07:27:49;;;;;;;71.18;29.63;;;7.80;99.90;;;;;;5073417;28;20020;-76
2021/03/24 07:30:32;;;;;;;78.50;31.33;;;8.00;99.90;;;;;;5072280;28;20021;-76
2021/03/24 07:33:22;;;;;;;74.72;31.42;;;8.10;99.90;;;;;;5058052;28;20021;-74
2021/03/24 07:36:00;;;;;;;68.07;29.48;;;8.20;99.90;;;;;;5073415;28;20027;-75
2021/03/24 07:38:53;;;;;;;80.13;30.25;;;8.30;99.90;;;;;;5061682;28;20037;-75
2021/03/24 07:41:50;;;;;;;67.65;28.75;;;8.30;99.90;;;;;;5077048;28;20037;-75
2021/03/24 07:44:41;;;;;;;69.65;28.15;;;8.50;99.90;;;;;;5053934;28;20060;-73
2021/03/24 07:47:43;;;;;;;69.25;27.48;;;8.60;99.90;;;;;;5078900;28;20408;-74
2021/03/24 07:50:33;;;;;;;65.22;27.15;;;8.70;99.90;;;;;;5076761;28;20469;-75
2021/03/24 07:53:08;;;;;;;67.20;28.65;;;8.90;99.90;;;;;;5062875;28;20023;-76
2021/03/24 07:56:01;;;;;;;73.30;29.98;;;8.90;99.90;;;;;;5069690;28;20025;-73
2021/03/24 07:58:46;;;;;;;66.05;27.00;;;9.00;99.90;;;;;;5071406;28;20059;-73
2021/03/24 08:01:37;;;;;;;73.60;30.13;;;9.00;99.90;;;;;;5069449;28;20036;-73
2021/03/24 08:04:08;;;;;;;59.97;26.75;;;9.10;99.90;;;;;;5064154;28;20028;-73
2021/03/24 08:07:11;;;;;;;58.67;27.92;;;9.10;99.90;;;;;;5072003;28;20028;-73
2021/03/24 08:09:53;;;;;;;60.00;26.40;;;9.20;99.90;;;;;;5068278;28;20029;-75
2021/03/24 08:12:48;;;;;;;67.43;28.73;;;9.30;99.90;;;;;;5072499;28;20040;-74
2021/03/24 08:15:30;;;;;;;59.13;27.10;;;9.40;99.90;;;;;;5054812;28;20028;-76
2021/03/24 08:18:13;;;;;;;63.78;26.95;;;9.60;99.90;;;;;;5063847;28;20112;-75
2021/03/24 08:21:06;;;;;;;63.15;28.38;;;9.70;99.90;;;;;;5072042;28;20029;-75
2021/03/24 08:23:40;;;;;;;64.68;25.80;;;9.80;99.90;;;;;;5065877;28;20032;-76
2021/03/24 08:26:26;;;;;;;62.60;26.75;;;9.90;99.90;;;;;;5055189;28;20556;-75
2021/03/24 08:29:16;;;;;;;57.90;26.15;;;10.10;99.90;;;;;;5054478;28;20029;-75
2021/03/24 08:31:50;;;;;;;59.88;27.05;;;10.20;99.90;;;;;;5072892;28;20021;-75
2021/03/24 08:34:46;;;;;;;65.38;29.90;;;10.20;99.90;;;;;;5067566;28;20082;-75
2021/03/24 08:37:12;;;;;;;58.45;26.58;;;10.30;99.90;;;;;;5058614;28;20103;-74
2021/03/24 08:39:44;;;;;;;74.53;29.67;;;10.40;99.90;;;;;;5049072;28;20437;-79
2021/03/24 08:42:46;;;;;;;62.42;26.40;;;10.50;99.90;;;;;;5053847;28;20924;-75
2021/03/24 08:45:21;;;;;;;59.17;27.00;;;10.60;99.90;;;;;;5071450;28;20071;-74
2021/03/24 08:47:51;;;;;;;57.60;27.58;;;10.60;99.90;;;;;;5050598;28;20086;-76
2021/03/24 08:50:42;;;;;;;63.35;25.52;;;10.70;99.90;;;;;;5053067;28;20150;-76
2021/03/24 08:53:20;;;;;;;54.95;26.15;;;10.80;99.90;;;;;;5053518;28;20029;-76
2021/03/24 08:56:10;;;;;;;63.00;27.63;;;10.90;99.90;;;;;;5054603;28;20039;-76
2021/03/24 08:58:42;;;;;;;69.60;28.00;;;10.90;99.90;;;;;;5065363;28;20040;-73
2021/03/24 09:01:24;;;;;;;69.53;27.48;;;11.00;99.90;;;;;;5053271;28;20460;-77
2021/03/24 09:04:03;;;;;;;64.28;27.02;;;11.00;99.90;;;;;;5064898;28;20025;-74
2021/03/24 09:06:47;;;;;;;67.28;28.63;;;11.10;99.90;;;;;;5036287;28;20037;-76
2021/03/24 09:09:52;;;;;;;64.63;27.88;;;11.30;99.90;;;;;;5052576;28;20859;-76
2021/03/24 09:12:24;;;;;;;61.92;27.00;;;11.40;99.90;;;;;;5073376;28;20060;-76
2021/03/24 09:15:15;;;;;;;69.35;27.58;;;11.50;99.90;;;;;;5073114;28;20253;-74
2021/03/24 09:17:56;;;;;;;57.05;26.83;;;11.50;99.90;;;;;;5068846;28;20028;-75
2021/03/24 09:20:30;;;;;;;57.08;25.15;;;11.40;99.90;;;;;;5049562;28;20029;-74
2021/03/24 09:23:05;;;;;;;62.30;26.60;;;11.50;99.90;;;;;;5057739;28;20032;-74
2021/03/24 09:25:48;;;;;;;56.67;26.17;;;11.70;99.90;;;;;;5075975;28;20090;-73
2021/03/24 09:28:30;;;;;;;58.33;25.63;;;11.70;99.90;;;;;;5054337;28;20040;-73
2021/03/24 09:31:15;;;;;;;57.00;24.70;;;11.90;99.90;;;;;;5045733;28;20110;-75
2021/03/24 09:33:46;;;;;;;60.15;24.02;;;12.00;99.90;;;;;;5075240;28;20119;-73
2021/03/24 09:36:39;;;;;;;55.97;23.88;;;12.10;99.90;;;;;;5055340;28;20063;-73
2021/03/24 09:39:49;;;;;;;52.42;23.60;;;12.20;99.90;;;;;;5070166;28;20519;-73
2021/03/24 09:42:37;;;;;;;53.28;25.92;;;12.30;99.90;;;;;;5055330;28;20516;-73
2021/03/24 09:45:14;;;;;;;57.03;23.85;;;12.40;99.90;;;;;;5080618;28;20103;-73
2021/03/24 09:48:00;;;;;;;57.00;25.67;;;12.50;99.90;;;;;;5080846;28;20111;-74
2021/03/24 09:50:37;;;;;;;62.30;27.30;;;12.60;99.90;;;;;;5062176;28;20682;-74
2021/03/24 09:53:26;;;;;;;60.72;25.17;;;12.70;99.90;;;;;;5060357;28;20055;-73
2021/03/24 09:55:54;;;;;;;57.00;23.50;;;12.80;99.90;;;;;;5046169;28;20036;-74
2021/03/24 09:58:41;;;;;;;69.72;25.52;;;13.00;99.90;;;;;;5080072;28;20032;-75
2021/03/24 10:01:27;;;;;;;59.95;26.73;;;13.00;99.90;;;;;;5075458;28;20031;-75
2021/03/24 10:04:15;;;;;;;56.33;25.67;;;13.10;99.90;;;;;;5077365;28;20039;-75
2021/03/24 10:07:00;;;;;;;55.30;23.88;;;13.10;99.90;;;;;;5077714;28;20657;-77
2021/03/24 10:09:56;;;;;;;47.08;23.77;;;13.00;99.90;;;;;;5052046;28;20127;-76
2021/03/24 10:12:29;;;;;;;52.47;23.80;;;13.10;99.90;;;;;;5064867;28;20062;-76
2021/03/24 10:15:02;;;;;;;51.38;24.95;;;13.00;99.90;;;;;;5075077;28;20024;-75
2021/03/24 10:17:59;;;;;;;59.60;25.65;;;13.10;99.90;;;;;;5070617;28;20048;-74
2021/03/24 10:20:30;;;;;;;57.97;24.77;;;13.30;99.90;;;;;;5048499;28;20439;-75
2021/03/24 10:23:05;;;;;;;59.65;25.67;;;13.30;99.90;;;;;;5065294;28;20025;-75
2021/03/24 10:25:39;;;;;;;59.63;27.67;;;13.30;99.90;;;;;;5066977;28;20373;-76
2021/03/24 10:28:19;;;;;;;58.38;27.58;;;13.40;99.90;;;;;;5065528;28;20013;-74
2021/03/24 10:31:05;;;;;;;61.30;27.90;;;13.50;99.90;;;;;;5069362;28;20082;-74
2021/03/24 10:33:56;;;;;;;65.53;26.55;;;13.50;99.90;;;;;;5073185;28;20032;-75
2021/03/24 10:36:37;;;;;;;62.67;26.27;;;13.60;99.90;;;;;;5045662;28;20421;-74
2021/03/24 10:39:26;;;;;;;56.83;26.00;;;13.60;99.90;;;;;;5063126;28;20048;-75
2021/03/24 10:42:16;;;;;;;57.10;26.55;;;13.40;99.90;;;;;;5064467;28;20029;-74
2021/03/24 10:44:54;;;;;;;60.20;28.50;;;13.50;99.90;;;;;;5049040;28;20078;-74
2021/03/24 10:47:34;;;;;;;63.75;28.38;;;13.60;99.90;;;;;;5064256;28;20028;-73
2021/03/24 10:50:14;;;;;;;67.50;29.15;;;13.50;99.90;;;;;;5070793;28;20024;-75
2021/03/24 10:53:00;;;;;;;61.35;28.17;;;13.60;99.90;;;;;;5062487;28;20465;-74
2021/03/24 10:55:28;;;;;;;64.82;28.98;;;13.60;99.90;;;;;;5075797;28;20029;-73
2021/03/24 10:57:58;;;;;;;61.53;28.42;;;13.70;99.90;;;;;;5072340;28;20044;-74
2021/03/24 11:00:47;;;;;;;58.67;27.13;;;14.00;99.90;;;;;;5052842;28;20029;-75
2021/03/24 11:03:23;;;;;;;61.53;28.83;;;14.10;99.90;;;;;;5050070;28;20036;-74
2021/03/24 11:06:00;;;;;;;62.38;26.98;;;14.20;99.90;;;;;;5066781;28;20063;-74
2021/03/24 11:08:46;;;;;;;62.95;28.00;;;14.10;99.90;;;;;;5066062;28;20393;-72
2021/03/24 11:11:15;;;;;;;59.80;27.65;;;14.30;99.90;;;;;;5065169;28;20028;-75
2021/03/24 11:13:47;;;;;;;65.10;28.85;;;14.30;99.90;;;;;;5048207;28;20124;-75
2021/03/24 11:16:27;;;;;;;61.00;27.80;;;14.20;99.90;;;;;;5065457;28;20111;-74
2021/03/24 11:19:21;;;;;;;55.60;25.35;;;14.20;99.90;;;;;;5065370;28;20524;-74
2021/03/24 11:21:59;;;;;;;61.17;28.38;;;14.40;99.90;;;;;;5047159;28;20029;-72
2021/03/24 11:24:33;;;;;;;64.85;28.42;;;14.40;99.90;;;;;;5048877;28;20020;-75
2021/03/24 11:27:04;;;;;;;63.30;27.25;;;14.50;99.90;;;;;;5049891;28;20016;-76
2021/03/24 11:29:33;;;;;;;61.97;29.50;;;14.50;99.90;;;;;;5069014;28;20036;-75
2021/03/24 11:32:27;;;;;;;60.28;27.00;;;14.60;99.90;;;;;;5064945;28;20036;-74
2021/03/24 11:35:14;;;;;;;55.53;24.48;;;14.60;99.90;;;;;;5055740;28;20020;-75
2021/03/24 11:37:49;;;;;;;56.75;25.70;;;14.60;99.90;;;;;;5066428;28;20127;-76
2021/03/24 11:40:26;;;;;;;53.85;25.85;;;14.60;99.90;;;;;;5072980;28;20039;-75
2021/03/24 11:42:59;;;;;;;64.88;27.95;;;14.70;99.90;;;;;;5069359;28;20052;-75
2021/03/24 11:45:27;;;;;;;59.03;26.30;;;14.80;99.90;;;;;;5067887;28;20028;-75
2021/03/24 11:48:16;;;;;;;58.80;26.40;;;14.90;99.90;;;;;;5066022;28;20048;-74
2021/03/24 11:50:57;;;;;;;51.97;23.42;;;14.90;99.90;;;;;;5073251;28;20036;-73
2021/03/24 11:53:22;;;;;;;52.03;22.95;;;14.80;99.90;;;;;;5067200;28;20028;-74
2021/03/24 11:56:13;;;;;;;57.42;23.48;;;15.00;99.90;;;;;;5060736;28;20134;-73
2021/03/24 11:59:08;;;;;;;55.13;24.15;;;15.00;99.90;;;;;;5072102;28;20029;-74
2021/03/24 12:01:45;;;;;;;42.30;20.55;;;15.20;99.90;;;;;;5063637;28;20415;-73
2021/03/24 12:04:22;;;;;;;50.00;20.92;;;15.40;99.90;;;;;;5070839;28;20028;-73
2021/03/24 12:07:04;;;;;;;50.55;21.98;;;15.20;99.90;;;;;;5053954;28;20115;-74
2021/03/24 12:09:32;;;;;;;49.90;20.42;;;15.20;99.90;;;;;;5041223;28;20033;-74
2021/03/24 12:12:10;;;;;;;48.67;22.83;;;15.00;99.90;;;;;;5053368;28;20025;-75
2021/03/24 12:14:37;;;;;;;52.53;23.30;;;15.10;99.90;;;;;;5065737;28;20028;-74
2021/03/24 12:17:23;;;;;;;49.20;23.02;;;15.00;99.90;;;;;;5058000;28;20078;-73
2021/03/24 12:19:49;;;;;;;46.50;20.92;;;15.10;99.90;;;;;;5073268;28;20438;-74
2021/03/24 12:22:20;;;;;;;42.50;19.58;;;15.30;99.90;;;;;;5071850;28;20055;-74
2021/03/24 12:24:49;;;;;;;43.97;19.83;;;15.40;99.90;;;;;;5072774;28;20029;-74
2021/03/24 12:27:23;;;;;;;41.97;17.85;;;15.50;99.90;;;;;;5054185;28;20465;-73
2021/03/24 12:30:07;;;;;;;35.67;17.08;;;15.70;99.90;;;;;;5072416;28;20029;-74
2021/03/24 12:32:36;;;;;;;32.72;15.88;;;16.00;99.90;;;;;;5052433;28;20117;-74
2021/03/24 12:35:05;;;;;;;38.65;16.98;;;16.00;99.90;;;;;;5054847;28;20028;-74
2021/03/24 12:37:38;;;;;;;35.28;16.38;;;15.90;99.70;;;;;;5071860;28;20064;-73
2021/03/24 12:40:24;;;;;;;43.55;18.73;;;15.80;99.90;;;;;;5054675;28;20052;-74
2021/03/24 12:42:51;;;;;;;38.63;16.48;;;15.90;99.90;;;;;;5071024;28;20123;-74
2021/03/24 12:45:32;;;;;;;38.10;17.10;;;16.10;99.90;;;;;;5073167;28;20032;-74
2021/03/24 12:48:08;;;;;;;32.55;15.90;;;16.10;99.80;;;;;;5053348;28;20032;-74
2021/03/24 12:50:48;;;;;;;36.22;18.33;;;15.90;99.10;;;;;;5069609;28;20139;-74
2021/03/24 12:53:20;;;;;;;42.30;17.10;;;15.90;99.80;;;;;;5073756;28;20074;-75
2021/03/24 12:55:58;;;;;;;42.92;18.27;;;15.70;99.90;;;;;;5077565;28;20039;-76
2021/03/24 12:58:35;;;;;;;37.35;17.65;;;15.70;99.90;;;;;;5074876;28;20032;-75
2021/03/24 13:01:19;;;;;;;39.13;18.43;;;15.70;99.90;;;;;;5074442;28;20451;-76
2021/03/24 13:03:55;;;;;;;36.08;17.20;;;16.00;99.90;;;;;;5076215;28;20278;-76
2021/03/24 13:06:47;;;;;;;42.67;19.20;;;16.20;99.90;;;;;;5075344;28;20050;-74
2021/03/24 13:09:38;;;;;;;43.03;17.13;;;16.20;99.50;;;;;;5057084;28;20052;-74
2021/03/24 13:12:10;;;;;;;37.42;17.80;;;16.40;99.40;;;;;;5074311;28;20170;-73
2021/03/24 13:14:45;;;;;;;40.00;19.42;;;16.50;99.00;;;;;;5064403;28;20039;-74
2021/03/24 13:17:32;;;;;;;44.45;20.33;;;16.80;99.40;;;;;;5072824;28;20016;-75
2021/03/24 13:20:27;;;;;;;;;;;16.80;99.20;;;;;;5076198;28;20029;-76
2021/03/24 13:22:58;;;;;;;41.42;20.35;;;16.50;99.50;;;;;;5044678;28;19957;-75
2021/03/24 13:25:43;;;;;;;42.20;20.35;;;15.90;99.90;;;;;;5075812;28;20032;-75
2021/03/24 13:28:20;;;;;;;39.97;19.70;;;15.90;99.90;;;;;;5067102;28;20439;-75